MSC Leanne — 3EXH3 — position and weather

sailwx.info

Track history (hours):
 
Tides and Currents Weather Stations Pressure Air Temp Water Temp Dewpoint Dewpoint Depression Visibility Wind Speed Wind Dir Waves Ship Positions

MSC Leanne

Last reported at 2015-Jun-17 09:33 UTC. Time now 2015-Jul-01 15:12 UTC.
Position N 26°24' W 078°51'.
Warning: this ship's position is 14 days out of date.

Length 294 m; draft 9.8 m.

Type: Ship (hazmat cat A). MMSI: 357723000.

Date/timePositionNaut miles runAvg speedWind from/ knotsBaromVisibWave heightAir tempDewpointWater temp
2015-Jun-17 09:33N 26°24' W 078°51'2310.6
2015-Jun-17 07:24N 26°20' W 079°16'1214.0
2015-Jun-17 06:33N 26°16' W 079°28'1413.9
2015-Jun-17 05:33N 26°12' W 079°43'1414.1
2015-Jun-17 04:33N 26°08' W 079°58'8 8.4
2015-Jun-17 03:33N 26°05' W 080°07'1 0.9
2015-Jun-17 02:31N 26°04' W 080°07'0 0.0
2015-Jun-17 01:31N 26°04' W 080°07'0 0.0
2015-Jun-17 00:34N 26°04' W 080°07'0 0.0
2015-Jun-16 23:34N 26°04' W 080°07'0 0.0
2015-Jun-16 22:31N 26°04' W 080°07'0 0.0
2015-Jun-16 21:22N 26°04' W 080°07'0 0.0
2015-Jun-16 20:22N 26°04' W 080°07'0 0.0
2015-Jun-16 19:25N 26°04' W 080°07'0 0.0
2015-Jun-16 18:25N 26°04' W 080°07'0 0.0
2015-Jun-16 17:28N 26°04' W 080°07'0 0.0
2015-Jun-16 16:28N 26°04' W 080°07'0 0.0
2015-Jun-16 15:28N 26°04' W 080°07'0 0.0
2015-Jun-16 14:31N 26°04' W 080°07'0 0.0
2015-Jun-16 13:28N 26°04' W 080°07'0 0.0
2015-Jun-16 12:31N 26°04' W 080°07'0 0.0
2015-Jun-16 11:31N 26°04' W 080°07'1 1.6
2015-Jun-16 10:33N 26°06' W 080°06'10 9.8
2015-Jun-16 09:33N 26°13' W 079°60'1616.2
2015-Jun-16 08:34N 26°29' W 079°57'1717.4
2015-Jun-16 07:34N 26°47' W 079°58'1717.0
2015-Jun-16 06:34N 27°04' W 079°58'12219.0
2015-Jun-16 00:07N 29°06' W 080°10'1119.5
2015-Jun-15 23:33N 29°16' W 080°12'334 8.9
2015-Jun-14 10:06N 33°49' W 076°26'1018.4
2015-Jun-14 09:33N 33°55' W 076°16'1818.0
2015-Jun-14 08:33N 34°05' W 075°59'1817.6
2015-Jun-14 07:33N 34°16' W 075°42'1716.9
2015-Jun-14 06:33N 34°27' W 075°26'1716.6
2015-Jun-14 05:33N 34°38' W 075°11'1716.6
2015-Jun-14 04:33N 34°48' W 074°55'1716.8
2015-Jun-14 03:33N 34°59' W 074°40'2415.8
2015-Jun-14 02:04N 35°20' W 074°26'26519.6
2015-Jun-13 12:33N 39°44' W 073°52'1716.9
2015-Jun-13 11:33N 40°00' W 073°50'2713.7
2015-Jun-13 09:34N 40°28' W 073°51'1313.1
2015-Jun-13 08:33N 40°37' W 074°03'5 5.0
2015-Jun-13 07:33N 40°40' W 074°08'1 1.1
2015-Jun-13 06:33N 40°41' W 074°09'0 0.0
2015-Jun-13 05:33N 40°41' W 074°09'0 0.0
2015-Jun-13 04:33N 40°41' W 074°09'0 0.0
2015-Jun-13 03:33N 40°41' W 074°09'0 0.0
2015-Jun-13 02:33N 40°41' W 074°09'0 0.0
2015-Jun-13 01:33N 40°41' W 074°09'0 0.0
2015-Jun-13 00:33N 40°41' W 074°09'0 0.0
2015-Jun-12 23:33N 40°41' W 074°09'0 0.0
2015-Jun-12 22:33N 40°41' W 074°09'0 0.0
2015-Jun-12 21:33N 40°41' W 074°09'0 0.0
2015-Jun-12 20:30N 40°41' W 074°09'0 0.0
2015-Jun-12 19:33N 40°41' W 074°09'0 0.0
2015-Jun-12 18:33N 40°41' W 074°09'0 0.0
2015-Jun-12 17:33N 40°41' W 074°09'0 0.0
2015-Jun-12 16:33N 40°41' W 074°09'0 0.0
2015-Jun-12 15:30N 40°41' W 074°09'0 0.0
2015-Jun-12 14:33N 40°41' W 074°09'0 0.0
2015-Jun-12 13:30N 40°41' W 074°09'0 0.0
2015-Jun-12 12:33N 40°41' W 074°09'0 0.0
2015-Jun-12 11:33N 40°41' W 074°09'0 0.0
2015-Jun-12 10:30N 40°41' W 074°09'1 1.5
2015-Jun-12 09:34N 40°40' W 074°09'4 4.1
2015-Jun-12 08:34N 40°39' W 074°03'10 9.7
2015-Jun-12 07:34N 40°30' W 073°57'9 8.8
2015-Jun-12 06:32N 40°28' W 073°45'5 2.1
2015-Jun-12 04:15N 40°29' W 073°39'0 0.0
2015-Jun-12 03:33N 40°29' W 073°39'0 0.0
2015-Jun-12 02:33N 40°29' W 073°39'0 0.0
2015-Jun-12 01:33N 40°29' W 073°39'0 0.0
2015-Jun-11 22:12N 40°29' W 073°39'3 4.3
2015-Jun-11 21:33N 40°27' W 073°42'1615.9
2015-Jun-11 20:33N 40°11' W 073°45'1919.0
2015-Jun-11 19:33N 39°53' W 073°42'1918.8
2015-Jun-11 18:34N 39°34' W 073°47'1919.2
2015-Jun-11 17:33N 39°18' W 074°00'4219.0
2015-Jun-11 15:22N 38°41' W 074°25'1518.8
2015-Jun-11 14:33N 38°28' W 074°36'1515.4
2015-Jun-11 13:34N 38°36' W 074°52'1616.3
2015-Jun-11 12:33N 38°50' W 075°04'1514.6
2015-Jun-11 11:33N 39°03' W 075°10'1514.5
2015-Jun-11 10:33N 39°16' W 075°20'1312.6
2015-Jun-11 09:33N 39°25' W 075°31'1111.4
2015-Jun-11 08:34N 39°36' W 075°34'1010.0
2015-Jun-11 07:33N 39°45' W 075°29'9 9.1
2015-Jun-11 06:33N 39°51' W 075°20'8 7.5
2015-Jun-11 05:33N 39°53' W 075°10'2 1.8
2015-Jun-11 04:33N 39°54' W 075°08'0 0.0
2015-Jun-11 03:33N 39°54' W 075°08'0 0.0
2015-Jun-11 02:33N 39°54' W 075°08'0 0.0
2015-Jun-11 01:33N 39°54' W 075°08'0 0.0
2015-Jun-11 00:33N 39°54' W 075°08'0 0.0
2015-Jun-10 23:33N 39°54' W 075°08'0 0.0
2015-Jun-10 22:33N 39°54' W 075°08'0 0.0
2015-Jun-10 21:33N 39°54' W 075°08'0 0.0
2015-Jun-10 20:33N 39°54' W 075°08'0 0.0
2015-Jun-10 19:33N 39°54' W 075°08'0 0.0
2015-Jun-10 18:33N 39°54' W 075°08'0 0.0
2015-Jun-10 17:33N 39°54' W 075°08'0 0.0
2015-Jun-10 16:33N 39°54' W 075°08'3 3.3
2015-Jun-10 15:33N 39°53' W 075°12'9 9.5
2015-Jun-10 14:33N 39°49' W 075°23'10 9.8
2015-Jun-10 13:33N 39°41' W 075°31'9 9.2
2015-Jun-10 12:33N 39°32' W 075°33'1413.6
2015-Jun-10 11:33N 39°20' W 075°25'1716.6
2015-Jun-10 10:32N 39°06' W 075°12'1616.1
2015-Jun-10 09:34N 38°52' W 075°04'9 8.7
2015-Jun-10 08:33N 38°45' W 074°58'8 8.5
2015-Jun-10 07:33N 38°38' W 074°50'1312.9
2015-Jun-10 06:33N 38°28' W 074°40'26 1.4
2015-Jun-09 11:33N 38°04' W 074°29'10615.2
2015-Jun-09 04:33N 36°18' W 074°23'6 5.9
2015-Jun-09 03:27N 36°11' W 074°24'1 0.7
2015-Jun-09 02:33N 36°11' W 074°23'1 0.6
2015-Jun-09 01:33N 36°10' W 074°23'0 0.5
2015-Jun-09 00:32N 36°10' W 074°22'1 0.4
2015-Jun-08 21:05N 36°09' W 074°22'20014.8
2015-Jun-08 07:33N 33°01' W 075°44'3215.3
2015-Jun-08 05:26N 32°32' W 076°02'  
Track history (hours):
 
Tides and Currents Weather Stations Pressure Air Temp Water Temp Dewpoint Dewpoint Depression Visibility Wind Speed Wind Dir Waves Ship Positions

MSC Leanne

Last reported at 2015-Jun-17 09:33 UTC. Time now 2015-Jul-01 15:12 UTC.
Position N 26°24' W 078°51'.
Warning: this ship's position is 14 days out of date.

Length 294 m; draft 9.8 m.

Type: Ship (hazmat cat A). MMSI: 357723000.

Date/timePositionNaut miles runAvg speedWind from/ knotsBaromVisibWave heightAir tempDewpointWater temp
2015-Jun-17 09:33N 26°24' W 078°51'2310.6
2015-Jun-17 07:24N 26°20' W 079°16'1214.0
2015-Jun-17 06:33N 26°16' W 079°28'1413.9
2015-Jun-17 05:33N 26°12' W 079°43'1414.1
2015-Jun-17 04:33N 26°08' W 079°58'8 8.4
2015-Jun-17 03:33N 26°05' W 080°07'1 0.9
2015-Jun-17 02:31N 26°04' W 080°07'0 0.0
2015-Jun-17 01:31N 26°04' W 080°07'0 0.0
2015-Jun-17 00:34N 26°04' W 080°07'0 0.0
2015-Jun-16 23:34N 26°04' W 080°07'0 0.0
2015-Jun-16 22:31N 26°04' W 080°07'0 0.0
2015-Jun-16 21:22N 26°04' W 080°07'0 0.0
2015-Jun-16 20:22N 26°04' W 080°07'0 0.0
2015-Jun-16 19:25N 26°04' W 080°07'0 0.0
2015-Jun-16 18:25N 26°04' W 080°07'0 0.0
2015-Jun-16 17:28N 26°04' W 080°07'0 0.0
2015-Jun-16 16:28N 26°04' W 080°07'0 0.0
2015-Jun-16 15:28N 26°04' W 080°07'0 0.0
2015-Jun-16 14:31N 26°04' W 080°07'0 0.0
2015-Jun-16 13:28N 26°04' W 080°07'0 0.0
2015-Jun-16 12:31N 26°04' W 080°07'0 0.0
2015-Jun-16 11:31N 26°04' W 080°07'1 1.6
2015-Jun-16 10:33N 26°06' W 080°06'10 9.8
2015-Jun-16 09:33N 26°13' W 079°60'1616.2
2015-Jun-16 08:34N 26°29' W 079°57'1717.4
2015-Jun-16 07:34N 26°47' W 079°58'1717.0
2015-Jun-16 06:34N 27°04' W 079°58'12219.0
2015-Jun-16 00:07N 29°06' W 080°10'1119.5
2015-Jun-15 23:33N 29°16' W 080°12'334 8.9
2015-Jun-14 10:06N 33°49' W 076°26'1018.4
2015-Jun-14 09:33N 33°55' W 076°16'1818.0
2015-Jun-14 08:33N 34°05' W 075°59'1817.6
2015-Jun-14 07:33N 34°16' W 075°42'1716.9
2015-Jun-14 06:33N 34°27' W 075°26'1716.6
2015-Jun-14 05:33N 34°38' W 075°11'1716.6
2015-Jun-14 04:33N 34°48' W 074°55'1716.8
2015-Jun-14 03:33N 34°59' W 074°40'2415.8
2015-Jun-14 02:04N 35°20' W 074°26'26519.6
2015-Jun-13 12:33N 39°44' W 073°52'1716.9
2015-Jun-13 11:33N 40°00' W 073°50'2713.7
2015-Jun-13 09:34N 40°28' W 073°51'1313.1
2015-Jun-13 08:33N 40°37' W 074°03'5 5.0
2015-Jun-13 07:33N 40°40' W 074°08'1 1.1
2015-Jun-13 06:33N 40°41' W 074°09'0 0.0
2015-Jun-13 05:33N 40°41' W 074°09'0 0.0
2015-Jun-13 04:33N 40°41' W 074°09'0 0.0
2015-Jun-13 03:33N 40°41' W 074°09'0 0.0
2015-Jun-13 02:33N 40°41' W 074°09'0 0.0
2015-Jun-13 01:33N 40°41' W 074°09'0 0.0
2015-Jun-13 00:33N 40°41' W 074°09'0 0.0
2015-Jun-12 23:33N 40°41' W 074°09'0 0.0
2015-Jun-12 22:33N 40°41' W 074°09'0 0.0
2015-Jun-12 21:33N 40°41' W 074°09'0 0.0
2015-Jun-12 20:30N 40°41' W 074°09'0 0.0
2015-Jun-12 19:33N 40°41' W 074°09'0 0.0
2015-Jun-12 18:33N 40°41' W 074°09'0 0.0
2015-Jun-12 17:33N 40°41' W 074°09'0 0.0
2015-Jun-12 16:33N 40°41' W 074°09'0 0.0
2015-Jun-12 15:30N 40°41' W 074°09'0 0.0
2015-Jun-12 14:33N 40°41' W 074°09'0 0.0
2015-Jun-12 13:30N 40°41' W 074°09'0 0.0
2015-Jun-12 12:33N 40°41' W 074°09'0 0.0
2015-Jun-12 11:33N 40°41' W 074°09'0 0.0
2015-Jun-12 10:30N 40°41' W 074°09'1 1.5
2015-Jun-12 09:34N 40°40' W 074°09'4 4.1
2015-Jun-12 08:34N 40°39' W 074°03'10 9.7
2015-Jun-12 07:34N 40°30' W 073°57'9 8.8
2015-Jun-12 06:32N 40°28' W 073°45'5 2.1
2015-Jun-12 04:15N 40°29' W 073°39'0 0.0
2015-Jun-12 03:33N 40°29' W 073°39'0 0.0
2015-Jun-12 02:33N 40°29' W 073°39'0 0.0
2015-Jun-12 01:33N 40°29' W 073°39'0 0.0
2015-Jun-11 22:12N 40°29' W 073°39'3 4.3
2015-Jun-11 21:33N 40°27' W 073°42'1615.9
2015-Jun-11 20:33N 40°11' W 073°45'1919.0
2015-Jun-11 19:33N 39°53' W 073°42'1918.8
2015-Jun-11 18:34N 39°34' W 073°47'1919.2
2015-Jun-11 17:33N 39°18' W 074°00'4219.0
2015-Jun-11 15:22N 38°41' W 074°25'1518.8
2015-Jun-11 14:33N 38°28' W 074°36'1515.4
2015-Jun-11 13:34N 38°36' W 074°52'1616.3
2015-Jun-11 12:33N 38°50' W 075°04'1514.6
2015-Jun-11 11:33N 39°03' W 075°10'1514.5
2015-Jun-11 10:33N 39°16' W 075°20'1312.6
2015-Jun-11 09:33N 39°25' W 075°31'1111.4
2015-Jun-11 08:34N 39°36' W 075°34'1010.0
2015-Jun-11 07:33N 39°45' W 075°29'9 9.1
2015-Jun-11 06:33N 39°51' W 075°20'8 7.5
2015-Jun-11 05:33N 39°53' W 075°10'2 1.8
2015-Jun-11 04:33N 39°54' W 075°08'0 0.0
2015-Jun-11 03:33N 39°54' W 075°08'0 0.0
2015-Jun-11 02:33N 39°54' W 075°08'0 0.0
2015-Jun-11 01:33N 39°54' W 075°08'0 0.0
2015-Jun-11 00:33N 39°54' W 075°08'0 0.0
2015-Jun-10 23:33N 39°54' W 075°08'0 0.0
2015-Jun-10 22:33N 39°54' W 075°08'0 0.0
2015-Jun-10 21:33N 39°54' W 075°08'0 0.0
2015-Jun-10 20:33N 39°54' W 075°08'0 0.0
2015-Jun-10 19:33N 39°54' W 075°08'0 0.0
2015-Jun-10 18:33N 39°54' W 075°08'0 0.0
2015-Jun-10 17:33N 39°54' W 075°08'0 0.0
2015-Jun-10 16:33N 39°54' W 075°08'3 3.3
2015-Jun-10 15:33N 39°53' W 075°12'9 9.5
2015-Jun-10 14:33N 39°49' W 075°23'10 9.8
2015-Jun-10 13:33N 39°41' W 075°31'9 9.2
2015-Jun-10 12:33N 39°32' W 075°33'1413.6
2015-Jun-10 11:33N 39°20' W 075°25'1716.6
2015-Jun-10 10:32N 39°06' W 075°12'1616.1
2015-Jun-10 09:34N 38°52' W 075°04'9 8.7
2015-Jun-10 08:33N 38°45' W 074°58'8 8.5
2015-Jun-10 07:33N 38°38' W 074°50'1312.9
2015-Jun-10 06:33N 38°28' W 074°40'26 1.4
2015-Jun-09 11:33N 38°04' W 074°29'10615.2
2015-Jun-09 04:33N 36°18' W 074°23'6 5.9
2015-Jun-09 03:27N 36°11' W 074°24'1 0.7
2015-Jun-09 02:33N 36°11' W 074°23'1 0.6
2015-Jun-09 01:33N 36°10' W 074°23'0 0.5
2015-Jun-09 00:32N 36°10' W 074°22'1 0.4
2015-Jun-08 21:05N 36°09' W 074°22'20014.8
2015-Jun-08 07:33N 33°01' W 075°44'3215.3
2015-Jun-08 05:26N 32°32' W 076°02'  

Dump ship's entire track history